createdAt,value
2023-05-20T00:01:43.159Z,14.10
2023-05-20T00:04:28.605Z,14.68
2023-05-20T00:07:14.243Z,14.10
2023-05-20T00:09:59.895Z,15.20
2023-05-20T00:12:45.786Z,14.73
2023-05-20T00:15:32.248Z,14.15
2023-05-20T00:18:18.149Z,14.52
2023-05-20T00:21:03.431Z,15.48
2023-05-20T00:23:48.731Z,13.93
2023-05-20T00:26:34.112Z,15.05
2023-05-20T00:29:23.040Z,14.82
2023-05-20T00:32:08.411Z,15.05
2023-05-20T00:35:01.103Z,14.52
2023-05-20T00:37:46.753Z,14.25
2023-05-20T00:40:31.884Z,14.52
2023-05-20T00:43:17.265Z,16.52
2023-05-20T00:46:02.597Z,15.13
2023-05-20T00:48:48.195Z,15.82
2023-05-20T00:51:35.233Z,16.00
2023-05-20T00:54:21.974Z,15.50
2023-05-20T00:57:08.143Z,16.58
2023-05-20T00:59:54.226Z,15.88
2023-05-20T01:02:39.880Z,16.02
2023-05-20T01:05:25.751Z,15.40
2023-05-20T01:08:11.035Z,16.08
2023-05-20T01:11:05.303Z,15.85
2023-05-20T01:13:55.742Z,15.65
2023-05-20T01:16:43.521Z,15.23
2023-05-20T01:19:38.365Z,15.32
2023-05-20T01:22:26.853Z,16.67
2023-05-20T01:25:12.406Z,16.13
2023-05-20T01:27:58.209Z,16.02
2023-05-20T01:30:50.945Z,15.63
2023-05-20T01:33:37.877Z,15.93
2023-05-20T01:36:24.043Z,15.77
2023-05-20T01:39:09.926Z,15.45
2023-05-20T01:41:56.054Z,15.35
2023-05-20T01:44:41.898Z,16.77
2023-05-20T01:47:27.522Z,15.23
2023-05-20T01:50:12.915Z,16.42
2023-05-20T01:52:59.294Z,16.45
2023-05-20T01:55:44.555Z,15.82
2023-05-20T01:58:30.626Z,17.65
2023-05-20T02:01:15.991Z,16.52
2023-05-20T02:04:02.345Z,16.67
2023-05-20T02:06:49.398Z,15.85
2023-05-20T02:09:34.892Z,16.30
2023-05-20T02:12:21.394Z,15.43
2023-05-20T02:15:07.229Z,16.65
2023-05-20T02:17:53.875Z,15.95
2023-05-20T02:20:39.678Z,16.92
2023-05-20T02:23:25.108Z,17.33
2023-05-20T02:26:10.330Z,16.10
2023-05-20T02:28:55.844Z,17.60
2023-05-20T02:31:41.192Z,17.52
2023-05-20T02:34:27.714Z,16.45
2023-05-20T02:37:13.160Z,17.42
2023-05-20T02:39:58.392Z,17.23
2023-05-20T02:42:43.738Z,18.40
2023-05-20T02:45:29.317Z,18.70
2023-05-20T02:48:15.070Z,19.35
2023-05-20T02:51:00.419Z,20.40
2023-05-20T02:53:46.420Z,19.50
2023-05-20T02:56:32.587Z,21.20
2023-05-20T02:59:20.667Z,20.30
2023-05-20T03:02:06.135Z,21.42
2023-05-20T03:04:54.061Z,20.75
2023-05-20T03:07:39.768Z,21.55
2023-05-20T03:10:25.551Z,20.25
2023-05-20T03:13:11.747Z,21.30
2023-05-20T03:15:57.493Z,19.80
2023-05-20T03:18:42.965Z,19.73
2023-05-20T03:21:29.280Z,19.42
2023-05-20T03:24:14.965Z,20.20
2023-05-20T03:27:00.400Z,20.60
2023-05-20T03:29:45.514Z,19.92
2023-05-20T03:32:31.992Z,20.70
2023-05-20T03:35:17.685Z,22.33
2023-05-20T03:38:03.131Z,22.30
2023-05-20T03:40:49.569Z,21.45
2023-05-20T03:43:35.349Z,22.63
2023-05-20T03:46:20.850Z,21.60
2023-05-20T03:49:06.220Z,22.27
2023-05-20T03:51:51.548Z,21.50
2023-05-20T03:54:37.614Z,20.80
2023-05-20T03:57:24.524Z,22.20
2023-05-20T04:00:12.085Z,22.05
2023-05-20T04:05:47.905Z,20.08
2023-05-20T04:08:38.304Z,21.20
2023-05-20T04:11:24.163Z,21.35
2023-05-20T04:14:11.192Z,20.33
2023-05-20T04:16:57.494Z,20.27
2023-05-20T04:19:45.063Z,20.85
2023-05-20T04:22:31.420Z,20.67
2023-05-20T04:25:17.178Z,20.85
2023-05-20T04:28:02.826Z,21.23
2023-05-20T04:30:48.340Z,20.52
2023-05-20T04:33:37.858Z,19.08
2023-05-20T04:36:28.736Z,19.38
2023-05-20T04:39:15.607Z,19.77
2023-05-20T04:42:02.927Z,19.42
2023-05-20T04:44:48.849Z,20.10
2023-05-20T04:47:38.728Z,19.63
2023-05-20T04:50:24.504Z,18.67
2023-05-20T04:53:09.904Z,18.77
2023-05-20T04:55:56.860Z,18.38
2023-05-20T04:58:42.747Z,21.08
2023-05-20T05:01:28.134Z,21.40
2023-05-20T05:04:13.901Z,20.25
2023-05-20T05:06:59.292Z,19.80
2023-05-20T05:09:44.611Z,19.58
2023-05-20T05:12:30.805Z,20.50
2023-05-20T05:15:17.348Z,20.15
2023-05-20T05:18:03.182Z,19.60
2023-05-20T05:20:49.090Z,18.67
2023-05-20T05:23:34.986Z,17.88
2023-05-20T05:26:20.980Z,19.27
2023-05-20T05:29:06.334Z,18.15
2023-05-20T05:31:52.072Z,19.83
2023-05-20T05:34:38.025Z,18.45
2023-05-20T05:37:23.222Z,18.80
2023-05-20T05:40:09.304Z,16.95
2023-05-20T05:42:55.316Z,17.35
2023-05-20T05:45:42.458Z,17.92
2023-05-20T05:48:28.279Z,16.60
2023-05-20T05:51:15.144Z,16.38
2023-05-20T05:54:00.751Z,15.68
2023-05-20T05:56:46.203Z,15.45
2023-05-20T05:59:31.947Z,16.88
2023-05-20T06:02:17.637Z,16.00
2023-05-20T06:05:04.351Z,15.95
2023-05-20T06:07:50.651Z,17.38
2023-05-20T06:10:37.231Z,16.58
2023-05-20T06:13:23.265Z,15.88
2023-05-20T06:16:09.593Z,14.88
2023-05-20T06:18:57.889Z,16.58
2023-05-20T06:21:43.961Z,15.85
2023-05-20T06:24:30.291Z,17.25
2023-05-20T06:27:16.540Z,15.82
2023-05-20T06:30:02.245Z,15.38
2023-05-20T06:32:48.712Z,15.57
2023-05-20T06:35:35.396Z,15.77
2023-05-20T06:38:22.412Z,16.13
2023-05-20T06:41:08.415Z,15.02
2023-05-20T06:43:53.880Z,16.13
2023-05-20T06:46:58.058Z,15.02
2023-05-20T06:49:46.592Z,15.50
2023-05-20T06:52:32.730Z,15.73
2023-05-20T06:55:18.635Z,16.40
2023-05-20T06:58:04.380Z,16.08
2023-05-20T07:00:51.089Z,16.77
2023-05-20T07:03:38.441Z,14.77
2023-05-20T07:06:24.253Z,15.27
2023-05-20T07:09:10.079Z,16.13
2023-05-20T07:11:56.860Z,16.60
2023-05-20T07:14:43.177Z,16.00
2023-05-20T07:17:29.473Z,14.45
2023-05-20T07:20:14.657Z,15.35
2023-05-20T07:23:01.037Z,16.95
2023-05-20T07:25:55.962Z,14.30
2023-05-20T07:28:41.418Z,14.95
2023-05-20T07:31:27.147Z,14.60
2023-05-20T07:34:12.721Z,14.80
2023-05-20T07:36:59.900Z,14.38
2023-05-20T07:39:45.322Z,15.93
2023-05-20T07:42:30.766Z,15.63
2023-05-20T07:45:19.153Z,16.00
2023-05-20T07:48:05.134Z,11.55
2023-05-20T07:50:50.898Z,11.85
2023-05-20T07:53:38.770Z,13.02
2023-05-20T07:56:24.804Z,9.85
2023-05-20T07:59:10.350Z,9.43
2023-05-20T08:02:01.110Z,9.88
2023-05-20T08:04:47.295Z,8.60
2023-05-20T08:07:32.658Z,8.15
2023-05-20T08:10:18.333Z,8.32
2023-05-20T08:13:05.686Z,7.72
2023-05-20T08:15:55.957Z,8.23
2023-05-20T08:18:42.931Z,8.00
2023-05-20T08:21:28.796Z,7.80
2023-05-20T08:24:14.789Z,7.80
2023-05-20T08:27:00.800Z,7.45
2023-05-20T08:29:46.111Z,7.15
2023-05-20T08:32:31.720Z,7.13
2023-05-20T08:35:17.836Z,5.55
2023-05-20T08:38:03.064Z,6.55
2023-05-20T08:40:56.497Z,5.93
2023-05-20T08:43:42.641Z,4.90
2023-05-20T08:46:30.219Z,6.07
2023-05-20T08:49:16.153Z,5.18
2023-05-20T08:52:03.283Z,5.43
2023-05-20T08:54:51.574Z,5.53
2023-05-20T08:57:38.325Z,4.68
2023-05-20T09:00:28.714Z,7.03
2023-05-20T09:03:14.414Z,7.97
2023-05-20T09:06:09.548Z,7.63
2023-05-20T09:08:55.200Z,7.03
2023-05-20T09:11:41.599Z,5.22
2023-05-20T09:14:29.919Z,5.30
2023-05-20T09:17:15.847Z,5.78
2023-05-20T09:20:01.633Z,5.18
2023-05-20T09:22:46.899Z,5.78
2023-05-20T09:25:34.421Z,5.95
2023-05-20T09:28:24.140Z,5.30
2023-05-20T09:31:09.797Z,4.82
2023-05-20T09:33:55.809Z,5.93
2023-05-20T09:36:44.389Z,5.22
2023-05-20T09:39:37.022Z,6.05
2023-05-20T09:42:26.605Z,5.40
2023-05-20T09:45:11.814Z,5.30
2023-05-20T09:47:58.207Z,5.57
2023-05-20T09:50:43.781Z,5.32
2023-05-20T09:53:29.120Z,5.78
2023-05-20T09:56:15.172Z,6.13
2023-05-20T09:59:02.559Z,6.38
2023-05-20T10:01:48.257Z,6.68
2023-05-20T10:04:37.270Z,5.70
2023-05-20T10:07:44.332Z,5.75
2023-05-20T10:10:51.065Z,5.75
2023-05-20T10:14:04.950Z,5.25
2023-05-20T10:17:08.845Z,5.40
2023-05-20T10:19:59.736Z,4.53
2023-05-20T10:22:56.059Z,4.60
2023-05-20T10:25:54.031Z,4.57
2023-05-20T10:28:41.669Z,4.57
2023-05-20T10:31:28.011Z,4.60
2023-05-20T10:34:18.146Z,5.07
2023-05-20T10:37:04.366Z,4.50
2023-05-20T10:39:49.628Z,4.47
2023-05-20T10:42:35.016Z,4.75
2023-05-20T10:45:28.772Z,4.40
2023-05-20T10:48:34.528Z,4.78
2023-05-20T10:51:21.285Z,5.00
2023-05-20T10:54:09.651Z,5.30
2023-05-20T10:56:55.641Z,4.28
2023-05-20T10:59:41.783Z,4.28
2023-05-20T11:02:28.694Z,3.88
2023-05-20T11:05:17.056Z,3.80
2023-05-20T11:08:08.011Z,4.57
2023-05-20T11:10:57.442Z,4.32
2023-05-20T11:13:43.205Z,4.18
2023-05-20T11:16:28.982Z,3.95
2023-05-20T11:19:16.421Z,4.30
2023-05-20T11:22:01.907Z,3.90
2023-05-20T11:24:47.506Z,3.53
2023-05-20T11:27:34.288Z,3.83
2023-05-20T11:30:20.751Z,3.72
2023-05-20T11:33:06.903Z,3.10
2023-05-20T11:35:54.098Z,3.78
2023-05-20T11:38:43.246Z,3.72
2023-05-20T11:41:29.728Z,3.40
2023-05-20T11:44:15.927Z,3.40
2023-05-20T11:47:03.682Z,3.38
2023-05-20T11:49:50.006Z,3.50
2023-05-20T11:52:35.391Z,2.97
2023-05-20T11:55:21.016Z,2.85
2023-05-20T11:58:06.679Z,3.30
2023-05-20T12:00:57.165Z,2.90
2023-05-20T12:03:51.427Z,2.80
2023-05-20T12:06:40.058Z,3.33
2023-05-20T12:09:26.796Z,2.65
2023-05-20T12:12:14.786Z,2.53
2023-05-20T12:15:00.694Z,3.15
2023-05-20T12:17:52.766Z,3.10
2023-05-20T12:20:39.328Z,2.97
2023-05-20T12:23:25.055Z,3.10
2023-05-20T12:26:11.401Z,3.47
2023-05-20T12:28:57.772Z,2.90
2023-05-20T12:31:44.077Z,4.97
2023-05-20T12:34:30.516Z,2.92
2023-05-20T12:37:16.435Z,2.63
2023-05-20T12:40:02.096Z,2.92
2023-05-20T12:42:48.668Z,2.80
2023-05-20T12:45:34.352Z,2.55
2023-05-20T12:48:20.086Z,3.10
2023-05-20T12:51:06.475Z,2.83
2023-05-20T12:53:51.985Z,2.25
2023-05-20T12:56:37.225Z,2.40
2023-05-20T12:59:22.815Z,2.00
2023-05-20T13:02:08.254Z,1.90
2023-05-20T13:04:54.309Z,2.45
2023-05-20T13:07:40.226Z,2.00
2023-05-20T13:10:25.757Z,2.40
2023-05-20T13:13:11.363Z,2.70
2023-05-20T13:15:58.091Z,2.55
2023-05-20T13:18:44.657Z,2.60
2023-05-20T13:21:31.819Z,3.13
2023-05-20T13:24:18.122Z,2.40
2023-05-20T13:27:03.921Z,2.60
2023-05-20T13:29:49.491Z,2.58
2023-05-20T13:32:35.041Z,2.40
2023-05-20T13:35:22.100Z,2.33
2023-05-20T13:38:08.197Z,2.58
2023-05-20T13:40:53.685Z,2.15
2023-05-20T13:43:42.107Z,2.33
2023-05-20T13:46:27.736Z,2.80
2023-05-20T13:49:12.864Z,2.30
2023-05-20T13:51:58.541Z,2.10
2023-05-20T13:54:46.791Z,2.42
2023-05-20T13:57:32.441Z,2.00
2023-05-20T14:00:18.067Z,1.90
2023-05-20T14:03:05.018Z,2.25
2023-05-20T14:05:51.325Z,2.50
2023-05-20T14:08:36.926Z,2.20
2023-05-20T14:11:22.394Z,1.85
2023-05-20T14:14:07.808Z,2.63
2023-05-20T14:16:53.551Z,2.33
2023-05-20T14:19:38.986Z,2.22
2023-05-20T14:22:24.791Z,2.42
2023-05-20T14:25:10.021Z,2.65
2023-05-20T14:27:55.455Z,2.15
2023-05-20T14:30:40.837Z,3.22
2023-05-20T14:33:26.151Z,2.10
2023-05-20T14:36:13.075Z,2.60
2023-05-20T14:38:59.587Z,2.30
2023-05-20T14:41:45.098Z,2.40
2023-05-20T14:44:31.352Z,2.13
2023-05-20T14:47:19.321Z,2.00
2023-05-20T14:50:05.412Z,2.22
2023-05-20T14:52:51.380Z,1.90
2023-05-20T14:55:37.058Z,2.70
2023-05-20T14:58:22.678Z,2.20
2023-05-20T15:01:08.115Z,2.22
2023-05-20T15:03:54.132Z,2.25
2023-05-20T15:06:39.598Z,3.20
2023-05-20T15:09:25.275Z,2.33
2023-05-20T15:12:11.324Z,2.30
2023-05-20T15:14:56.883Z,2.78
2023-05-20T15:17:42.569Z,2.40
2023-05-20T15:20:28.866Z,2.17
2023-05-20T15:23:14.132Z,1.90
2023-05-20T15:25:59.752Z,2.10
2023-05-20T15:28:45.568Z,2.67
2023-05-20T15:31:31.503Z,1.88
2023-05-20T15:34:18.345Z,2.00
2023-05-20T15:37:04.373Z,1.90
2023-05-20T15:39:50.055Z,2.10
2023-05-20T15:42:35.926Z,2.10
2023-05-20T15:45:21.863Z,2.03
2023-05-20T15:48:08.694Z,2.10
2023-05-20T15:50:54.035Z,2.00
2023-05-20T15:53:40.805Z,2.30
2023-05-20T15:56:26.356Z,2.03
2023-05-20T15:59:11.690Z,2.17
2023-05-20T16:01:56.999Z,2.05
2023-05-20T16:04:42.451Z,2.22
2023-05-20T16:07:28.081Z,1.90
2023-05-20T16:10:13.621Z,1.80
2023-05-20T16:13:03.089Z,2.05
2023-05-20T16:15:50.062Z,2.20
2023-05-20T16:18:35.432Z,2.10
2023-05-20T16:21:21.195Z,2.17
2023-05-20T16:24:06.849Z,1.95
2023-05-20T16:26:54.011Z,2.13
2023-05-20T16:29:39.952Z,2.00
2023-05-20T16:32:27.066Z,2.30
2023-05-20T16:35:14.313Z,2.03
2023-05-20T16:38:01.577Z,2.00
2023-05-20T16:40:47.246Z,1.95
2023-05-20T16:43:32.766Z,2.13
2023-05-20T16:46:18.180Z,2.25
2023-05-20T16:49:03.756Z,2.50
2023-05-20T16:51:52.176Z,2.45
2023-05-20T16:54:38.140Z,2.13
2023-05-20T16:57:23.852Z,2.15
2023-05-20T17:00:11.479Z,1.75
2023-05-20T17:02:56.796Z,2.08
2023-05-20T17:05:43.723Z,1.80
2023-05-20T17:08:29.934Z,2.10
2023-05-20T17:11:16.668Z,2.10
2023-05-20T17:14:03.016Z,118.38
2023-05-20T17:16:48.685Z,2.47
2023-05-20T17:19:34.086Z,2.10
2023-05-20T17:22:19.736Z,2.20
2023-05-20T17:25:05.876Z,2.03
2023-05-20T17:27:51.390Z,2.05
2023-05-20T17:30:37.051Z,2.10
2023-05-20T17:33:22.921Z,3.35
2023-05-20T17:36:08.754Z,2.70
2023-05-20T17:38:54.290Z,2.60
2023-05-20T17:41:40.926Z,2.50
2023-05-20T17:44:28.177Z,1.98
2023-05-20T17:47:14.692Z,3.28
2023-05-20T17:50:02.351Z,2.80
2023-05-20T17:52:47.884Z,2.28
2023-05-20T17:55:36.324Z,2.58
2023-05-20T17:58:24.887Z,2.42
2023-05-20T18:01:10.309Z,2.40
2023-05-20T18:03:57.391Z,2.42
2023-05-20T18:06:43.126Z,1.95
2023-05-20T18:09:28.510Z,1.75
2023-05-20T18:12:14.628Z,1.70
2023-05-20T18:15:00.167Z,1.77
2023-05-20T18:17:45.966Z,2.25
2023-05-20T18:20:31.828Z,1.77
2023-05-20T18:23:17.312Z,2.85
2023-05-20T18:26:06.944Z,1.88
2023-05-20T18:28:52.414Z,1.65
2023-05-20T18:31:38.550Z,1.90
2023-05-20T18:34:24.157Z,1.88
2023-05-20T18:37:09.758Z,1.67
2023-05-20T18:39:57.119Z,2.00
2023-05-20T18:42:42.381Z,1.58
2023-05-20T18:45:27.702Z,1.92
2023-05-20T18:48:17.927Z,1.90
2023-05-20T18:51:11.656Z,2.78
2023-05-20T18:53:57.094Z,1.52
2023-05-20T18:56:42.389Z,1.48
2023-05-20T18:59:27.916Z,1.45
2023-05-20T19:02:14.578Z,1.60
2023-05-20T19:05:01.582Z,1.88
2023-05-20T19:07:47.281Z,1.60
2023-05-20T19:10:32.976Z,1.60
2023-05-20T19:13:21.757Z,1.90
2023-05-20T19:16:07.752Z,1.92
2023-05-20T19:18:53.187Z,2.58
2023-05-20T19:21:41.921Z,1.83
2023-05-20T19:24:29.035Z,1.70
2023-05-20T19:27:14.267Z,1.90
2023-05-20T19:29:59.926Z,1.88
2023-05-20T19:32:45.534Z,1.83
2023-05-20T19:35:31.861Z,1.70
2023-05-20T19:38:17.829Z,1.90
2023-05-20T19:41:03.310Z,1.80
2023-05-20T19:43:49.318Z,1.80
2023-05-20T19:46:36.322Z,1.63
2023-05-20T19:49:22.237Z,1.50
2023-05-20T19:52:07.869Z,2.47
2023-05-20T19:54:53.453Z,1.98
2023-05-20T19:57:38.840Z,1.70
2023-05-20T20:00:24.352Z,2.05
2023-05-20T20:03:09.801Z,2.03
2023-05-20T20:05:55.474Z,2.28
2023-05-20T20:08:41.645Z,1.65
2023-05-20T20:11:27.329Z,1.88
2023-05-20T20:14:13.229Z,1.95
2023-05-20T20:16:59.856Z,1.90
2023-05-20T20:19:50.215Z,1.95
2023-05-20T20:22:38.871Z,1.67
2023-05-20T20:25:26.865Z,2.33
2023-05-20T20:28:12.658Z,2.13
2023-05-20T20:30:58.711Z,1.90
2023-05-20T20:33:44.237Z,2.58
2023-05-20T20:36:32.089Z,2.03
2023-05-20T20:39:20.978Z,2.60
2023-05-20T20:42:06.563Z,2.78
2023-05-20T20:44:52.983Z,2.63
2023-05-20T20:47:40.962Z,2.30
2023-05-20T20:50:28.285Z,2.72
2023-05-20T20:53:16.440Z,2.35
2023-05-20T20:56:01.629Z,2.50
2023-05-20T20:58:47.042Z,2.55
2023-05-20T21:01:36.403Z,2.35
2023-05-20T21:04:21.898Z,3.65
2023-05-20T21:07:07.298Z,2.15
2023-05-20T21:09:55.150Z,2.50
2023-05-20T21:12:40.574Z,2.60
2023-05-20T21:15:27.332Z,2.67
2023-05-20T21:18:14.025Z,2.50
2023-05-20T21:20:59.475Z,2.55
2023-05-20T21:23:44.925Z,2.50
2023-05-20T21:26:30.104Z,2.50
2023-05-20T21:29:15.697Z,2.53
2023-05-20T21:32:01.131Z,2.60
2023-05-20T21:34:46.176Z,2.60
2023-05-20T21:37:31.771Z,2.85
2023-05-20T21:40:17.295Z,3.00
2023-05-20T21:43:02.793Z,2.72
2023-05-20T21:45:48.078Z,2.90
2023-05-20T21:48:33.420Z,3.22
2023-05-20T21:51:18.845Z,2.22
2023-05-20T21:54:04.099Z,2.83
2023-05-20T21:56:49.573Z,2.20
2023-05-20T21:59:34.995Z,2.10
2023-05-20T22:02:20.616Z,2.10
2023-05-20T22:05:06.510Z,3.13
2023-05-20T22:07:53.002Z,3.15
2023-05-20T22:10:38.783Z,2.67
2023-05-20T22:13:26.128Z,2.85
2023-05-20T22:16:11.817Z,2.65
2023-05-20T22:18:57.350Z,2.85
2023-05-20T22:21:50.079Z,2.10
2023-05-20T22:24:36.356Z,2.42
2023-05-20T22:27:21.690Z,2.25
2023-05-20T22:30:08.328Z,2.53
2023-05-20T22:32:53.851Z,2.78
2023-05-20T22:35:39.137Z,2.47
2023-05-20T22:38:24.662Z,2.45
2023-05-20T22:41:10.370Z,2.40
2023-05-20T22:43:57.079Z,2.45
2023-05-20T22:46:42.514Z,2.75
2023-05-20T22:49:28.388Z,2.50
2023-05-20T22:52:13.668Z,2.10
2023-05-20T22:54:59.000Z,2.40
2023-05-20T22:57:44.376Z,2.20
2023-05-20T23:00:29.782Z,2.40
2023-05-20T23:03:15.204Z,2.20
2023-05-20T23:06:00.992Z,2.78
2023-05-20T23:08:47.409Z,2.60
2023-05-20T23:11:33.143Z,2.30
2023-05-20T23:14:19.951Z,2.80
2023-05-20T23:17:05.576Z,2.42
2023-05-20T23:19:51.502Z,2.20
2023-05-20T23:22:37.614Z,2.40
2023-05-20T23:25:24.442Z,2.42
2023-05-20T23:28:10.017Z,2.10
2023-05-20T23:30:56.595Z,2.42
2023-05-20T23:33:42.468Z,2.38
2023-05-20T23:36:34.416Z,2.30
2023-05-20T23:39:19.620Z,2.45
2023-05-20T23:42:05.386Z,2.05
2023-05-20T23:44:50.690Z,2.20
2023-05-20T23:47:36.535Z,2.05
2023-05-20T23:50:21.999Z,2.60
2023-05-20T23:53:07.258Z,2.30
2023-05-20T23:55:52.762Z,2.05
2023-05-20T23:58:38.124Z,2.15
